地図

経路データ

SID SEASON NUMBER BASIN SUBBASIN NAME ISO_TIME NATURE LAT LON WMO_WIND WMO_PRES WMO_AGENCY TRACK_TYPE DIST2LAND LANDFALL IFLAG USA_AGENCY USA_ATCF_ID USA_LAT USA_LON USA_RECORD USA_STATUS USA_WIND USA_PRES USA_SSHS USA_R34_NE USA_R34_SE USA_R34_SW USA_R34_NW USA_R50_NE USA_R50_SE USA_R50_SW USA_R50_NW USA_R64_NE USA_R64_SE USA_R64_SW USA_R64_NW USA_POCI USA_ROCI USA_RMW USA_EYE TOKYO_LAT TOKYO_LON TOKYO_GRADE TOKYO_WIND TOKYO_PRES TOKYO_R50_DIR TOKYO_R50_LONG TOKYO_R50_SHORT TOKYO_R30_DIR TOKYO_R30_LONG TOKYO_R30_SHORT TOKYO_LAND CMA_LAT CMA_LON CMA_CAT CMA_WIND CMA_PRES HKO_LAT HKO_LON HKO_CAT HKO_WIND HKO_PRES NEWDELHI_LAT NEWDELHI_LON NEWDELHI_GRADE NEWDELHI_WIND NEWDELHI_PRES NEWDELHI_CI NEWDELHI_DP NEWDELHI_POCI REUNION_LAT REUNION_LON REUNION_TYPE REUNION_WIND REUNION_PRES REUNION_TNUM REUNION_CI REUNION_RMW REUNION_R34_NE REUNION_R34_SE REUNION_R34_SW REUNION_R34_NW REUNION_R50_NE REUNION_R50_SE REUNION_R50_SW REUNION_R50_NW REUNION_R64_NE REUNION_R64_SE REUNION_R64_SW REUNION_R64_NW BOM_LAT BOM_LON BOM_TYPE BOM_WIND BOM_PRES BOM_TNUM BOM_CI BOM_RMW BOM_R34_NE BOM_R34_SE BOM_R34_SW BOM_R34_NW BOM_R50_NE BOM_R50_SE BOM_R50_SW BOM_R50_NW BOM_R64_NE BOM_R64_SE BOM_R64_SW BOM_R64_NW BOM_ROCI BOM_POCI BOM_EYE BOM_POS_METHOD BOM_PRES_METHOD NADI_LAT NADI_LON NADI_CAT NADI_WIND NADI_PRES WELLINGTON_LAT WELLINGTON_LON WELLINGTON_WIND WELLINGTON_PRES DS824_LAT DS824_LON DS824_STAGE DS824_WIND DS824_PRES TD9636_LAT TD9636_LON TD9636_STAGE TD9636_WIND TD9636_PRES TD9635_LAT TD9635_LON TD9635_WIND TD9635_PRES TD9635_ROCI NEUMANN_LAT NEUMANN_LON NEUMANN_CLASS NEUMANN_WIND NEUMANN_PRES MLC_LAT MLC_LON MLC_CLASS MLC_WIND MLC_PRES USA_GUST BOM_GUST BOM_GUST_PER REUNION_GUST REUNION_GUST_PER USA_SEAHGT USA_SEARAD_NE USA_SEARAD_SE USA_SEARAD_SW USA_SEARAD_NW STORM_SPEED STORM_DIR
1976229N15239 1976 92 EP MM NOT_NAMED 1976-08-16 00:00:00 NR 15.5000 -120.900 main 1378 1378 O_________O___ jtwc_ep EP121976 15.5000 -120.900 30 -1 15.5000 -120.900 1 30 8 258
1976229N15239 1976 92 EP MM NOT_NAMED 1976-08-16 03:00:00 NR 15.4156 -121.298 main 1414 1414 P_________P___ EP121976 15.4026 -121.293 30 -1 15.4285 -121.304 1 30 8 257
1976229N15239 1976 92 EP MM NOT_NAMED 1976-08-16 06:00:00 NR 15.3177 -121.708 main 1451 1451 O_________P___ jtwc_ep EP121976 15.3000 -121.700 30 -1 15.3353 -121.717 1 30 8 254
1976229N15239 1976 92 EP MM NOT_NAMED 1976-08-16 09:00:00 NR 15.1897 -122.140 main 1489 1489 P_________P___ EP121976 15.1799 -122.135 30 -1 15.1995 -122.146 1 30 9 250
1976229N15239 1976 92 EP MM NOT_NAMED 1976-08-16 12:00:00 NR 15.0000 -122.600 main 1542 1542 O_________O___ jtwc_ep EP121976 15.0000 -122.600 30 -1 15.0000 -122.600 1 30 10 243
1976229N15239 1976 92 EP MM NOT_NAMED 1976-08-16 15:00:00 NR 14.7242 -123.088 main 1603 1603 P_________P___ EP121976 14.7224 -123.093 30 -1 14.7259 -123.083 1 30 11 238
1976229N15239 1976 92 EP MM NOT_NAMED 1976-08-16 18:00:00 NR 14.4037 -123.593 main 1665 1665 O_________P___ jtwc_ep EP121976 14.4000 -123.600 30 -1 14.4074 -123.586 1 30 12 237
1976229N15239 1976 92 EP MM NOT_NAMED 1976-08-16 21:00:00 NR 14.0888 -124.102 main 1726 1726 P_________P___ EP121976 14.0924 -124.107 30 -1 14.0852 -124.096 1 30 12 238
1976229N15239 1976 92 EP MM NOT_NAMED 1976-08-17 00:00:00 NR 13.8000 -124.600 main 1788 1788 O_________O___ jtwc_ep EP121976 13.8000 -124.600 30 -1 13.8000 -124.600 1 30 11 239
1976229N15239 1976 92 EP MM NOT_NAMED 1976-08-17 03:00:00 NR 13.5310 -125.066 main 1850 1850 P_________P___ EP121976 13.5123 -125.050 30 -1 13.5497 -125.082 1 30 10 242
1976229N15239 1976 92 EP MM NOT_NAMED 1976-08-17 06:00:00 NR 13.3248 -125.529 main 1897 1897 O_________P___ jtwc_ep EP121976 13.3000 -125.500 30 -1 13.3496 -125.558 1 30 10 250
1976229N15239 1976 92 EP MM NOT_NAMED 1976-08-17 09:00:00 NR 13.2036 -126.015 main 1943 1943 P_________P___ EP121976 13.1825 -126.000 30 -1 13.2247 -126.029 1 30 10 262
1976229N15239 1976 92 EP MM NOT_NAMED 1976-08-17 12:00:00 NR 13.2000 -126.500 main 1983 1983 O_________O___ jtwc_ep EP121976 13.2000 -126.500 30 -1 13.2000 -126.500 1 30 9 278
1976229N15239 1976 92 EP MM NOT_NAMED 1976-08-17 15:00:00 NR 13.3349 -126.972 main 2015 2008 P_________P___ EP121976 13.3623 -126.950 30 -1 13.3075 -126.994 1 30 10 291
1976229N15239 1976 92 EP MM NOT_NAMED 1976-08-17 18:00:00 NR 13.5550 -127.443 main 2025 2025 O_________P___ jtwc_ep EP121976 13.6000 -127.400 30 -1 13.5100 -127.486 1 30 10 295
1976229N15239 1976 92 EP MM NOT_NAMED 1976-08-17 21:00:00 NR 13.7826 -127.938 main 2049 2049 P_________P___ EP121976 13.8076 -127.915 30 -1 13.7575 -127.960 1 30 10 296
1976229N15239 1976 92 EP MM NOT_NAMED 1976-08-18 00:00:00 NR 14.0000 -128.400 main 2066 2064 O_________O___ jtwc_ep EP121976 14.0000 -128.400 30 -1 14.0000 -128.400 1 30 9 295
1976229N15239 1976 92 EP MM NOT_NAMED 1976-08-18 03:00:00 NR 14.1645 -128.763 main 2077 2077 P_________P___ EP121976 14.1573 -128.773 29 -1 14.1717 -128.754 1 28 7 295
1976229N15239 1976 92 EP MM NOT_NAMED 1976-08-18 06:00:00 NR 14.3144 -129.089 main 2090 2089 O_________P___ jtwc_ep EP121976 14.3000 -129.100 28 -1 14.3288 -129.078 1 27 7 295
1976229N15239 1976 92 EP MM NOT_NAMED 1976-08-18 09:00:00 NR 14.4645 -129.420 main 2095 2095 P_________P___ EP121976 14.4573 -129.428 26 -1 14.4716 -129.413 1 26 7 293
1976229N15239 1976 92 EP MM NOT_NAMED 1976-08-18 12:00:00 NR 14.6000 -129.800 main 2117 2117 O_________O___ jtwc_ep EP121976 14.6000 -129.800 25 -1 14.6000 -129.800 1 25 9 287
1976229N15239 1976 92 EP MM NOT_NAMED 1976-08-18 15:00:00 NR 14.7109 -130.266 main 2147 2147 P_________P___ EP121976 14.7074 -130.263 20 -1 14.7143 -130.269 1 10 282
1976229N15239 1976 92 EP MM NOT_NAMED 1976-08-18 18:00:00 NR 14.8085 -130.803 main 2177 2177 O_________P___ jtwc_ep EP121976 14.8000 -130.800 15 -1 14.8169 -130.807 1 11 280
1976229N15239 1976 92 EP MM NOT_NAMED 1976-08-18 21:00:00 NR 14.9044 -131.390 main 2216 2216 P_________P___ EP121976 14.8978 -131.387 20 -1 14.9111 -131.392 1 12 279
1976229N15239 1976 92 EP MM NOT_NAMED 1976-08-19 00:00:00 NR 15.0000 -132.000 main 2256 O_________O___ jtwc_ep EP121976 15.0000 -132.000 26 -1 15.0000 -132.000 6 12 279

IBTrACS Databaseについて

本データベースは、米国NOAAが公開する1842年以降の世界の熱帯低気圧のベストトラックデータアーカイブInternational Best Track Archive for Climate Stewardship (IBTrACS)を、ウェブで閲覧しやすい形式に変換したものです。

最終更新日:2021-12-06